createdAt,value
2018-11-07T00:01:17.929Z,17.93
2018-11-07T00:03:52.015Z,18.37
2018-11-07T00:06:26.073Z,16.50
2018-11-07T00:09:00.825Z,15.93
2018-11-07T00:11:34.697Z,15.87
2018-11-07T00:14:08.763Z,18.50
2018-11-07T00:16:42.836Z,19.50
2018-11-07T00:19:16.836Z,16.13
2018-11-07T00:21:51.704Z,18.77
2018-11-07T00:24:29.580Z,19.23
2018-11-07T00:27:03.900Z,17.40
2018-11-07T00:29:37.950Z,20.10
2018-11-07T00:32:12.023Z,18.10
2018-11-07T00:34:46.772Z,18.10
2018-11-07T00:37:20.924Z,18.07
2018-11-07T00:39:55.017Z,17.47
2018-11-07T00:42:29.240Z,16.87
2018-11-07T00:45:03.196Z,19.00
2018-11-07T00:47:37.236Z,18.07
2018-11-07T00:50:12.448Z,21.13
2018-11-07T00:52:46.406Z,19.17
2018-11-07T00:55:21.202Z,22.13
2018-11-07T00:57:56.127Z,15.67
2018-11-07T01:00:30.172Z,21.23
2018-11-07T01:03:04.814Z,19.77
2018-11-07T01:05:38.693Z,17.97
2018-11-07T01:08:12.702Z,18.60
2018-11-07T01:10:46.717Z,21.87
2018-11-07T01:13:20.808Z,21.23
2018-11-07T01:15:54.854Z,16.50
2018-11-07T01:18:28.970Z,22.40
2018-11-07T01:21:03.070Z,18.87
2018-11-07T01:23:37.097Z,18.77
2018-11-07T01:26:11.233Z,16.13
2018-11-07T01:28:45.307Z,17.63
2018-11-07T01:31:19.397Z,16.60
2018-11-07T01:33:53.413Z,17.40
2018-11-07T01:36:27.449Z,19.00
2018-11-07T01:39:02.309Z,16.83
2018-11-07T01:41:36.393Z,20.03
2018-11-07T01:44:10.574Z,15.63
2018-11-07T01:46:45.449Z,16.17
2018-11-07T01:49:19.557Z,16.30
2018-11-07T01:51:54.416Z,18.33
2018-11-07T01:54:28.492Z,17.70
2018-11-07T01:57:02.593Z,14.00
2018-11-07T01:59:36.518Z,17.37
2018-11-07T02:02:10.589Z,15.87
2018-11-07T02:04:44.644Z,15.43
2018-11-07T02:07:18.662Z,15.77
2018-11-07T02:09:52.577Z,18.33
2018-11-07T02:12:26.641Z,15.00
2018-11-07T02:15:00.704Z,19.03
2018-11-07T02:17:34.722Z,14.43
2018-11-07T02:20:08.785Z,15.67
2018-11-07T02:22:42.893Z,12.90
2018-11-07T02:25:16.838Z,13.43
2018-11-07T02:27:50.918Z,14.77
2018-11-07T02:30:24.945Z,14.47
2018-11-07T02:32:58.968Z,14.03
2018-11-07T02:35:32.983Z,14.73
2018-11-07T02:38:07.719Z,20.37
2018-11-07T02:40:41.782Z,17.03
2018-11-07T02:43:15.920Z,13.60
2018-11-07T02:45:50.054Z,16.90
2018-11-07T02:48:24.121Z,14.23
2018-11-07T02:50:58.262Z,14.20
2018-11-07T02:53:33.119Z,15.73
2018-11-07T02:56:07.225Z,14.73
2018-11-07T02:58:41.966Z,14.43
2018-11-07T03:01:16.106Z,14.33
2018-11-07T03:03:50.159Z,14.57
2018-11-07T03:06:25.223Z,16.60
2018-11-07T03:08:59.337Z,15.20
2018-11-07T03:11:33.336Z,12.40
2018-11-07T03:14:07.746Z,13.93
2018-11-07T03:16:41.774Z,15.20
2018-11-07T03:19:15.738Z,14.37
2018-11-07T03:21:50.265Z,15.30
2018-11-07T03:24:24.221Z,12.00
2018-11-07T03:26:58.361Z,12.63
2018-11-07T03:29:32.321Z,13.63
2018-11-07T03:32:06.513Z,12.80
2018-11-07T03:34:40.547Z,12.53
2018-11-07T03:37:14.694Z,13.77
2018-11-07T03:39:49.585Z,13.03
2018-11-07T03:42:23.682Z,15.03
2018-11-07T03:44:57.785Z,14.20
2018-11-07T03:47:32.062Z,11.73
2018-11-07T03:50:06.160Z,14.30
2018-11-07T03:52:41.003Z,13.13
2018-11-07T03:55:14.951Z,14.73
2018-11-07T03:57:49.001Z,13.63
2018-11-07T04:00:23.003Z,15.60
2018-11-07T04:02:57.081Z,12.70
2018-11-07T04:05:32.455Z,11.87
2018-11-07T04:08:06.660Z,12.83
2018-11-07T04:10:40.710Z,15.00
2018-11-07T04:13:14.748Z,11.83
2018-11-07T04:15:49.167Z,12.27
2018-11-07T04:18:23.846Z,14.07
2018-11-07T04:20:57.814Z,12.90
2018-11-07T04:23:31.835Z,10.63
2018-11-07T04:26:05.918Z,11.63
2018-11-07T04:28:40.675Z,11.20
2018-11-07T04:31:14.829Z,11.40
2018-11-07T04:33:48.904Z,12.10
2018-11-07T04:36:23.805Z,11.90
2018-11-07T04:38:57.938Z,10.63
2018-11-07T04:41:32.686Z,15.33
2018-11-07T04:44:06.765Z,12.13
2018-11-07T04:46:40.873Z,11.20
2018-11-07T04:49:14.840Z,14.30
2018-11-07T04:51:49.081Z,11.40
2018-11-07T04:54:24.096Z,9.87
2018-11-07T04:56:58.302Z,14.50
2018-11-07T04:59:33.226Z,12.20
2018-11-07T05:02:07.331Z,9.83
2018-11-07T05:04:41.343Z,13.47
2018-11-07T05:07:15.454Z,12.03
2018-11-07T05:09:49.572Z,13.93
2018-11-07T05:12:23.650Z,11.27
2018-11-07T05:14:57.786Z,13.57
2018-11-07T05:17:31.912Z,13.53
2018-11-07T05:20:06.031Z,13.23
2018-11-07T05:22:40.098Z,12.53
2018-11-07T05:25:14.858Z,13.30
2018-11-07T05:27:49.714Z,11.07
2018-11-07T05:30:23.771Z,11.77
2018-11-07T05:32:57.673Z,10.10
2018-11-07T05:35:31.817Z,12.37
2018-11-07T05:38:05.726Z,14.03
2018-11-07T05:40:39.821Z,12.47
2018-11-07T05:43:13.899Z,13.47
2018-11-07T05:45:48.725Z,14.27
2018-11-07T05:48:22.806Z,14.70
2018-11-07T05:50:56.914Z,13.43
2018-11-07T05:53:30.908Z,17.80
2018-11-07T05:56:05.026Z,19.60
2018-11-07T05:58:39.149Z,17.10
2018-11-07T06:01:13.242Z,19.00
2018-11-07T06:03:47.294Z,19.97
2018-11-07T06:06:21.214Z,20.30
2018-11-07T06:08:55.291Z,25.30
2018-11-07T06:11:29.430Z,24.67
2018-11-07T06:14:03.529Z,20.63
2018-11-07T06:16:38.280Z,23.83
2018-11-07T06:19:12.311Z,30.50
2018-11-07T06:21:47.178Z,29.77
2018-11-07T06:24:22.021Z,33.07
2018-11-07T06:26:56.110Z,26.37
2018-11-07T06:29:30.133Z,27.43
2018-11-07T06:32:04.101Z,25.73
2018-11-07T06:34:38.201Z,29.20
2018-11-07T06:37:12.181Z,23.73
2018-11-07T06:39:46.153Z,26.40
2018-11-07T06:42:20.239Z,25.20
2018-11-07T06:44:54.275Z,31.93
2018-11-07T06:47:29.117Z,23.40
2018-11-07T06:50:03.066Z,21.67
2018-11-07T06:52:37.908Z,22.27
2018-11-07T06:55:12.019Z,19.50
2018-11-07T06:57:46.128Z,15.50
2018-11-07T07:00:20.045Z,21.03
2018-11-07T07:02:54.052Z,20.37
2018-11-07T07:05:28.165Z,19.97
2018-11-07T07:08:02.281Z,21.57
2018-11-07T07:10:36.445Z,22.97
2018-11-07T07:13:10.765Z,19.37
2018-11-07T07:15:44.826Z,18.80
2018-11-07T07:18:18.770Z,19.13
2018-11-07T07:20:52.855Z,24.13
2018-11-07T07:23:26.951Z,16.70
2018-11-07T07:26:00.888Z,20.20
2018-11-07T07:28:35.715Z,19.40
2018-11-07T07:31:10.708Z,18.13
2018-11-07T07:33:44.915Z,15.23
2018-11-07T07:36:19.683Z,16.13
2018-11-07T07:38:54.407Z,16.60
2018-11-07T07:41:29.085Z,14.50
2018-11-07T07:44:03.122Z,14.87
2018-11-07T07:46:37.219Z,16.13
2018-11-07T07:49:12.144Z,18.90
2018-11-07T07:51:46.210Z,15.40
2018-11-07T07:54:20.201Z,18.37
2018-11-07T07:56:54.305Z,19.43
2018-11-07T07:59:28.501Z,17.90
2018-11-07T08:02:02.859Z,17.60
2018-11-07T08:04:36.770Z,15.97
2018-11-07T08:07:10.809Z,18.30
2018-11-07T08:09:44.850Z,18.03
2018-11-07T08:12:18.866Z,23.77
2018-11-07T08:14:53.038Z,17.00
2018-11-07T08:17:27.077Z,21.70
2018-11-07T08:20:01.119Z,17.17
2018-11-07T08:22:35.261Z,21.47
2018-11-07T08:25:09.216Z,17.47
2018-11-07T08:27:43.258Z,20.17
2018-11-07T08:30:17.206Z,20.47
2018-11-07T08:32:51.306Z,19.57
2018-11-07T08:35:25.294Z,18.00
2018-11-07T08:37:59.381Z,17.93
2018-11-07T08:40:33.530Z,19.73
2018-11-07T08:43:08.049Z,20.33
2018-11-07T08:45:42.422Z,20.77
2018-11-07T08:48:16.760Z,16.97
2018-11-07T08:50:50.706Z,17.40
2018-11-07T08:53:25.031Z,15.80
2018-11-07T08:55:59.055Z,19.20
2018-11-07T08:58:32.972Z,19.20
2018-11-07T09:01:07.186Z,18.83
2018-11-07T09:03:41.542Z,28.50
2018-11-07T09:06:15.570Z,28.10
2018-11-07T09:08:49.749Z,21.17
2018-11-07T09:11:24.901Z,19.73
2018-11-07T09:13:59.239Z,17.47
2018-11-07T09:16:33.550Z,17.27
2018-11-07T09:19:07.513Z,16.33
2018-11-07T09:21:42.147Z,19.17
2018-11-07T09:24:16.224Z,16.93
2018-11-07T09:26:50.805Z,20.67
2018-11-07T09:29:25.283Z,18.67
2018-11-07T09:31:59.654Z,21.50
2018-11-07T09:34:33.725Z,18.93
2018-11-07T09:37:07.810Z,18.13
2018-11-07T09:39:42.733Z,19.17
2018-11-07T09:42:17.168Z,24.00
2018-11-07T09:44:51.483Z,21.90
2018-11-07T09:47:25.424Z,18.10
2018-11-07T09:50:00.390Z,21.93
2018-11-07T09:52:35.394Z,22.70
2018-11-07T09:55:09.430Z,19.73
2018-11-07T09:57:43.546Z,19.50
2018-11-07T10:00:17.772Z,16.80
2018-11-07T10:02:52.059Z,18.87
2018-11-07T10:05:25.961Z,17.10
2018-11-07T10:08:00.284Z,21.43
2018-11-07T10:10:34.402Z,17.63
2018-11-07T10:13:08.858Z,19.90
2018-11-07T10:15:42.865Z,17.77
2018-11-07T10:18:16.997Z,17.90
2018-11-07T10:20:51.262Z,19.60
2018-11-07T10:23:25.286Z,16.60
2018-11-07T10:26:00.166Z,19.03
2018-11-07T10:28:34.493Z,17.37
2018-11-07T10:31:08.361Z,17.27
2018-11-07T10:33:42.287Z,16.27
2018-11-07T10:36:16.519Z,16.40
2018-11-07T10:38:51.191Z,14.90
2018-11-07T10:41:25.566Z,20.70
2018-11-07T10:43:59.577Z,15.07
2018-11-07T10:46:33.890Z,13.60
2018-11-07T10:49:08.011Z,15.43
2018-11-07T10:51:42.411Z,11.93
2018-11-07T10:54:16.538Z,15.10
2018-11-07T10:56:51.039Z,13.63
2018-11-07T10:59:25.340Z,15.67
2018-11-07T11:01:59.470Z,17.43
2018-11-07T11:04:33.769Z,14.97
2018-11-07T11:07:07.731Z,17.63
2018-11-07T11:09:42.016Z,15.53
2018-11-07T11:12:15.966Z,17.87
2018-11-07T11:14:50.399Z,17.07
2018-11-07T11:17:24.789Z,15.67
2018-11-07T11:19:59.598Z,15.20
2018-11-07T11:22:33.822Z,11.17
2018-11-07T11:25:08.060Z,14.57
2018-11-07T11:27:42.080Z,18.60
2018-11-07T11:30:16.114Z,13.03
2018-11-07T11:32:50.423Z,14.63
2018-11-07T11:35:24.864Z,17.00
2018-11-07T11:37:59.104Z,13.83
2018-11-07T11:40:33.532Z,12.50
2018-11-07T11:43:08.823Z,13.30
2018-11-07T11:45:47.412Z,14.77
2018-11-07T11:48:23.380Z,14.90
2018-11-07T11:51:01.258Z,11.83
2018-11-07T11:53:36.805Z,14.00
2018-11-07T11:56:11.838Z,14.80
2018-11-07T11:58:46.853Z,13.73
2018-11-07T12:01:23.131Z,13.83
2018-11-07T12:03:57.880Z,12.17
2018-11-07T12:06:32.738Z,10.23
2018-11-07T12:09:07.318Z,14.57
2018-11-07T12:11:45.866Z,11.00
2018-11-07T12:14:21.332Z,11.93
2018-11-07T12:16:55.731Z,9.90
2018-11-07T12:19:30.343Z,9.40
2018-11-07T12:22:04.364Z,9.13
2018-11-07T12:24:41.489Z,9.83
2018-11-07T12:27:16.360Z,8.33
2018-11-07T12:29:52.230Z,11.63
2018-11-07T12:32:27.069Z,9.97
2018-11-07T12:35:02.782Z,9.63
2018-11-07T12:37:37.051Z,11.17
2018-11-07T12:40:12.122Z,9.63
2018-11-07T12:42:47.656Z,9.07
2018-11-07T12:45:22.005Z,10.20
2018-11-07T12:47:56.145Z,10.17
2018-11-07T12:50:30.310Z,11.40
2018-11-07T12:53:04.268Z,10.63
2018-11-07T12:55:38.397Z,9.17
2018-11-07T12:58:12.570Z,11.23
2018-11-07T13:00:47.728Z,9.17
2018-11-07T13:03:22.398Z,8.30
2018-11-07T13:05:56.578Z,9.03
2018-11-07T13:08:31.376Z,9.27
2018-11-07T13:11:05.689Z,7.97
2018-11-07T13:13:39.691Z,8.53
2018-11-07T13:16:15.533Z,8.63
2018-11-07T13:18:49.918Z,7.93
2018-11-07T13:21:24.013Z,9.07
2018-11-07T13:23:58.883Z,8.80
2018-11-07T13:26:33.665Z,7.87
2018-11-07T13:29:07.894Z,9.60
2018-11-07T13:31:45.461Z,10.97
2018-11-07T13:34:20.722Z,8.03
2018-11-07T13:36:55.021Z,10.87
2018-11-07T13:39:37.472Z,8.37
2018-11-07T13:42:12.703Z,8.03
2018-11-07T13:48:09.209Z,7.60
2018-11-07T13:50:43.470Z,9.17
2018-11-07T13:53:18.640Z,7.10
2018-11-07T13:55:52.760Z,8.73
2018-11-07T13:58:26.788Z,5.93
2018-11-07T14:01:02.009Z,7.63
2018-11-07T14:03:37.215Z,6.80
2018-11-07T14:06:12.476Z,7.47
2018-11-07T14:08:47.649Z,6.27
2018-11-07T14:11:22.093Z,8.67
2018-11-07T14:13:56.181Z,8.13
2018-11-07T14:16:30.931Z,8.93
2018-11-07T14:19:05.437Z,8.83
2018-11-07T14:21:40.485Z,8.57
2018-11-07T14:24:15.483Z,7.77
2018-11-07T14:26:50.147Z,9.87
2018-11-07T14:29:24.239Z,6.57
2018-11-07T14:31:59.393Z,8.20
2018-11-07T14:34:33.372Z,10.23
2018-11-07T14:37:07.483Z,5.90
2018-11-07T14:39:41.818Z,9.00
2018-11-07T14:42:16.123Z,5.57
2018-11-07T14:44:50.436Z,6.17
2018-11-07T14:47:24.873Z,7.73
2018-11-07T14:49:58.853Z,6.93
2018-11-07T14:52:33.451Z,8.30
2018-11-07T14:55:07.737Z,7.90
2018-11-07T14:57:41.924Z,5.83
2018-11-07T15:00:16.146Z,6.67
2018-11-07T15:02:50.627Z,6.37
2018-11-07T15:05:25.328Z,9.07
2018-11-07T15:07:59.394Z,10.43
2018-11-07T15:10:33.605Z,10.83
2018-11-07T15:13:07.632Z,8.77
2018-11-07T15:15:41.754Z,8.00
2018-11-07T15:18:18.559Z,5.60
2018-11-07T15:20:53.110Z,8.20
2018-11-07T15:23:32.918Z,7.80
2018-11-07T15:26:07.171Z,7.97
2018-11-07T15:28:42.703Z,5.47
2018-11-07T15:31:16.787Z,6.13
2018-11-07T15:33:50.953Z,5.10
2018-11-07T15:36:25.623Z,7.27
2018-11-07T15:39:02.546Z,6.50
2018-11-07T15:41:36.865Z,4.93
2018-11-07T15:44:10.957Z,4.90
2018-11-07T15:46:45.114Z,4.60
2018-11-07T15:49:19.476Z,6.30
2018-11-07T15:51:54.638Z,5.13
2018-11-07T15:54:28.818Z,5.93
2018-11-07T15:57:02.842Z,5.70
2018-11-07T15:59:37.006Z,7.83
2018-11-07T16:02:12.287Z,6.90
2018-11-07T16:04:47.708Z,9.77
2018-11-07T16:07:23.129Z,11.97
2018-11-07T16:10:05.097Z,8.37
2018-11-07T16:12:42.362Z,6.57
2018-11-07T16:15:17.658Z,7.40
2018-11-07T16:17:51.837Z,6.93
2018-11-07T16:20:25.805Z,7.53
2018-11-07T16:22:59.992Z,5.83
2018-11-07T16:25:34.198Z,5.40
2018-11-07T16:28:12.403Z,5.80
2018-11-07T16:30:46.541Z,6.13
2018-11-07T16:33:21.795Z,6.13
2018-11-07T16:35:55.957Z,5.97
2018-11-07T16:38:30.838Z,10.00
2018-11-07T16:41:05.079Z,7.37
2018-11-07T16:43:39.216Z,7.73
2018-11-07T16:46:14.780Z,7.53
2018-11-07T16:48:50.227Z,8.17
2018-11-07T16:51:26.478Z,7.63
2018-11-07T16:54:03.212Z,5.87
2018-11-07T16:56:38.852Z,8.03
2018-11-07T16:59:13.213Z,7.13
2018-11-07T17:01:47.113Z,9.10
2018-11-07T17:04:21.327Z,5.93
2018-11-07T17:06:55.450Z,9.73
2018-11-07T17:09:29.569Z,9.13
2018-11-07T17:12:04.859Z,7.93
2018-11-07T17:14:39.663Z,8.87
2018-11-07T17:17:13.840Z,9.37
2018-11-07T17:19:48.002Z,8.17
2018-11-07T17:22:22.473Z,9.03
2018-11-07T17:24:56.499Z,7.87
2018-11-07T17:27:30.921Z,6.83
2018-11-07T17:30:05.479Z,7.63
2018-11-07T17:32:40.216Z,7.03
2018-11-07T17:35:15.474Z,10.23
2018-11-07T17:37:50.798Z,8.40
2018-11-07T17:40:25.407Z,7.57
2018-11-07T17:43:00.725Z,7.97
2018-11-07T17:45:34.972Z,8.90
2018-11-07T17:48:09.692Z,11.93
2018-11-07T17:50:44.231Z,8.57
2018-11-07T17:53:18.301Z,9.57
2018-11-07T17:55:52.384Z,8.30
2018-11-07T17:58:28.605Z,8.03
2018-11-07T18:01:03.028Z,6.80
2018-11-07T18:03:38.044Z,8.30
2018-11-07T18:06:12.283Z,7.43
2018-11-07T18:08:46.522Z,7.67
2018-11-07T18:11:21.272Z,5.83
2018-11-07T18:13:55.954Z,6.10
2018-11-07T18:16:30.937Z,9.50
2018-11-07T18:19:04.974Z,10.93
2018-11-07T18:21:39.229Z,10.93
2018-11-07T18:24:13.724Z,8.23
2018-11-07T18:26:47.950Z,12.17
2018-11-07T18:29:23.025Z,12.67
2018-11-07T18:31:57.715Z,14.73
2018-11-07T18:34:32.449Z,9.27
2018-11-07T18:37:06.326Z,5.80
2018-11-07T18:39:40.553Z,5.50
2018-11-07T18:42:14.853Z,6.57
2018-11-07T18:44:49.274Z,7.37
2018-11-07T18:47:23.723Z,7.67
2018-11-07T18:49:57.803Z,6.53
2018-11-07T18:52:31.826Z,6.77
2018-11-07T18:55:06.221Z,6.67
2018-11-07T18:57:40.318Z,7.13
2018-11-07T19:00:15.516Z,8.27
2018-11-07T19:02:49.549Z,7.10
2018-11-07T19:05:24.963Z,9.27
2018-11-07T19:07:59.029Z,5.53
2018-11-07T19:10:33.145Z,10.27
2018-11-07T19:13:08.212Z,11.50
2018-11-07T19:15:43.089Z,9.00
2018-11-07T19:18:17.210Z,23.80
2018-11-07T19:20:51.262Z,22.63
2018-11-07T19:23:25.927Z,20.17
2018-11-07T19:26:00.142Z,19.33
2018-11-07T19:28:34.426Z,16.97
2018-11-07T19:31:08.289Z,9.80
2018-11-07T19:33:42.558Z,8.27
2018-11-07T19:36:16.586Z,7.53
2018-11-07T19:38:50.853Z,8.83
2018-11-07T19:41:25.787Z,6.67
2018-11-07T19:44:00.267Z,8.77
2018-11-07T19:46:34.611Z,5.70
2018-11-07T19:49:09.686Z,7.77
2018-11-07T19:51:43.689Z,6.83
2018-11-07T19:54:17.833Z,5.20
2018-11-07T19:56:53.150Z,5.47
2018-11-07T19:59:27.751Z,8.00
2018-11-07T20:02:01.777Z,7.57
2018-11-07T20:04:36.839Z,4.90
2018-11-07T20:07:11.145Z,8.63
2018-11-07T20:09:45.362Z,9.30
2018-11-07T20:12:19.737Z,8.23
2018-11-07T20:14:53.845Z,6.10
2018-11-07T20:17:28.829Z,7.13
2018-11-07T20:20:03.519Z,7.23
2018-11-07T20:22:37.659Z,6.67
2018-11-07T20:25:13.562Z,9.90
2018-11-07T20:27:47.754Z,7.43
2018-11-07T20:30:22.162Z,7.47
2018-11-07T20:32:57.930Z,6.97
2018-11-07T20:35:32.564Z,7.33
2018-11-07T20:38:06.513Z,7.77
2018-11-07T20:40:40.831Z,5.77
2018-11-07T20:43:15.874Z,7.50
2018-11-07T20:45:50.986Z,10.93
2018-11-07T20:48:25.343Z,10.97
2018-11-07T20:51:00.277Z,11.00
2018-11-07T20:53:35.266Z,9.73
2018-11-07T20:56:21.715Z,8.23
2018-11-07T20:58:56.103Z,6.30
2018-11-07T21:01:30.326Z,7.57
2018-11-07T21:04:05.423Z,9.27
2018-11-07T21:06:39.880Z,9.97
2018-11-07T21:09:13.818Z,11.50
2018-11-07T21:11:48.728Z,8.10
2018-11-07T21:14:22.735Z,10.47
2018-11-07T21:16:57.731Z,8.33
2018-11-07T21:19:32.649Z,8.23
2018-11-07T21:22:06.858Z,6.17
2018-11-07T21:24:41.739Z,6.60
2018-11-07T21:27:16.581Z,5.73
2018-11-07T21:29:50.882Z,10.60
2018-11-07T21:32:24.958Z,8.10
2018-11-07T21:34:59.230Z,5.70
2018-11-07T21:37:33.492Z,5.50
2018-11-07T21:40:07.600Z,7.73
2018-11-07T21:42:45.577Z,5.83
2018-11-07T21:45:20.058Z,5.77
2018-11-07T21:47:54.031Z,7.53
2018-11-07T21:50:28.154Z,6.53
2018-11-07T21:53:02.158Z,5.47
2018-11-07T21:55:36.649Z,6.70
2018-11-07T21:58:10.878Z,6.30
2018-11-07T22:00:45.234Z,5.53
2018-11-07T22:03:19.241Z,5.47
2018-11-07T22:05:53.235Z,5.43
2018-11-07T22:08:27.245Z,5.77
2018-11-07T22:11:01.309Z,6.37
2018-11-07T22:13:35.422Z,6.63
2018-11-07T22:16:09.602Z,6.53
2018-11-07T22:18:44.313Z,4.67
2018-11-07T22:21:19.203Z,6.17
2018-11-07T22:23:53.226Z,4.77
2018-11-07T22:26:27.673Z,4.77
2018-11-07T22:29:01.727Z,4.93
2018-11-07T22:31:35.824Z,3.77
2018-11-07T22:34:09.714Z,4.37
2018-11-07T22:36:43.730Z,5.60
2018-11-07T22:39:18.506Z,6.90
2018-11-07T22:41:52.431Z,4.97
2018-11-07T22:44:27.346Z,5.23
2018-11-07T22:47:01.433Z,4.03
2018-11-07T22:49:35.546Z,4.83
2018-11-07T22:52:09.831Z,3.97
2018-11-07T22:54:43.988Z,4.17
2018-11-07T22:57:18.027Z,5.63
2018-11-07T22:59:52.184Z,5.47
2018-11-07T23:02:27.163Z,4.67
2018-11-07T23:05:01.179Z,4.07
2018-11-07T23:07:35.250Z,3.13
2018-11-07T23:10:09.433Z,5.67
2018-11-07T23:12:43.612Z,4.90
2018-11-07T23:15:17.602Z,3.23
2018-11-07T23:17:51.522Z,5.70
2018-11-07T23:20:25.620Z,3.47
2018-11-07T23:22:59.719Z,4.67
2018-11-07T23:25:33.981Z,4.93
2018-11-07T23:28:08.284Z,3.23
2018-11-07T23:30:42.396Z,3.80
2018-11-07T23:33:16.799Z,5.70
2018-11-07T23:35:50.786Z,3.33
2018-11-07T23:38:25.501Z,4.40
2018-11-07T23:40:59.662Z,4.67
2018-11-07T23:43:33.726Z,5.83
2018-11-07T23:46:07.861Z,3.83
2018-11-07T23:48:42.585Z,3.90
2018-11-07T23:51:16.628Z,3.90
2018-11-07T23:53:50.714Z,4.90
2018-11-07T23:56:25.462Z,3.90
2018-11-07T23:58:59.499Z,4.37
